sensor_id;sensor_type;location;lat;lon;timestamp;P1;durP1;ratioP1;P2;durP2;ratioP2
62030;SDS011;62035;52.094;5.112;2023-05-07T00:01:20;29.30;;;19.67;;
62030;SDS011;62035;52.094;5.112;2023-05-07T00:03:48;25.42;;;18.10;;
62030;SDS011;62035;52.094;5.112;2023-05-07T00:06:15;27.90;;;18.40;;
62030;SDS011;62035;52.094;5.112;2023-05-07T00:08:43;22.13;;;16.65;;
62030;SDS011;62035;52.094;5.112;2023-05-07T00:11:11;22.83;;;16.15;;
62030;SDS011;62035;52.094;5.112;2023-05-07T00:13:38;25.08;;;16.35;;
62030;SDS011;62035;52.094;5.112;2023-05-07T00:16:07;20.73;;;14.65;;
62030;SDS011;62035;52.094;5.112;2023-05-07T00:18:35;23.02;;;14.85;;
62030;SDS011;62035;52.094;5.112;2023-05-07T00:21:02;23.55;;;15.23;;
62030;SDS011;62035;52.094;5.112;2023-05-07T00:23:30;22.00;;;15.00;;
62030;SDS011;62035;52.094;5.112;2023-05-07T00:25:58;23.65;;;15.02;;
62030;SDS011;62035;52.094;5.112;2023-05-07T00:28:26;26.17;;;15.52;;
62030;SDS011;62035;52.094;5.112;2023-05-07T00:30:53;20.15;;;14.70;;
62030;SDS011;62035;52.094;5.112;2023-05-07T00:33:22;18.67;;;14.00;;
62030;SDS011;62035;52.094;5.112;2023-05-07T00:35:52;23.77;;;14.10;;
62030;SDS011;62035;52.094;5.112;2023-05-07T00:38:20;18.42;;;13.23;;
62030;SDS011;62035;52.094;5.112;2023-05-07T00:40:48;20.60;;;13.77;;
62030;SDS011;62035;52.094;5.112;2023-05-07T00:43:17;17.67;;;12.30;;
62030;SDS011;62035;52.094;5.112;2023-05-07T00:45:44;18.55;;;12.27;;
62030;SDS011;62035;52.094;5.112;2023-05-07T00:48:12;19.63;;;12.93;;
62030;SDS011;62035;52.094;5.112;2023-05-07T00:50:41;20.45;;;11.88;;
62030;SDS011;62035;52.094;5.112;2023-05-07T00:53:10;17.92;;;11.35;;
62030;SDS011;62035;52.094;5.112;2023-05-07T00:55:38;14.93;;;10.82;;
62030;SDS011;62035;52.094;5.112;2023-05-07T00:58:06;13.93;;;11.10;;
62030;SDS011;62035;52.094;5.112;2023-05-07T01:00:33;17.15;;;10.10;;
62030;SDS011;62035;52.094;5.112;2023-05-07T01:03:01;14.38;;;10.52;;
62030;SDS011;62035;52.094;5.112;2023-05-07T01:05:29;15.35;;;10.60;;
62030;SDS011;62035;52.094;5.112;2023-05-07T01:07:59;14.35;;;10.02;;
62030;SDS011;62035;52.094;5.112;2023-05-07T01:10:29;11.35;;;9.07;;
62030;SDS011;62035;52.094;5.112;2023-05-07T01:12:57;12.52;;;9.23;;
62030;SDS011;62035;52.094;5.112;2023-05-07T01:15:26;14.02;;;8.90;;
62030;SDS011;62035;52.094;5.112;2023-05-07T01:17:54;11.43;;;8.30;;
62030;SDS011;62035;52.094;5.112;2023-05-07T01:20:23;14.48;;;9.00;;
62030;SDS011;62035;52.094;5.112;2023-05-07T01:22:53;17.45;;;9.98;;
62030;SDS011;62035;52.094;5.112;2023-05-07T01:25:22;11.35;;;8.32;;
62030;SDS011;62035;52.094;5.112;2023-05-07T01:27:50;12.02;;;8.23;;
62030;SDS011;62035;52.094;5.112;2023-05-07T01:30:18;11.10;;;9.07;;
62030;SDS011;62035;52.094;5.112;2023-05-07T01:32:49;12.85;;;8.73;;
62030;SDS011;62035;52.094;5.112;2023-05-07T01:35:24;15.75;;;9.48;;
62030;SDS011;62035;52.094;5.112;2023-05-07T01:38:00;16.50;;;9.73;;
62030;SDS011;62035;52.094;5.112;2023-05-07T01:40:30;18.38;;;9.88;;
62030;SDS011;62035;52.094;5.112;2023-05-07T01:42:58;15.18;;;9.93;;
62030;SDS011;62035;52.094;5.112;2023-05-07T01:45:25;15.05;;;9.32;;
62030;SDS011;62035;52.094;5.112;2023-05-07T01:47:54;16.05;;;10.80;;
62030;SDS011;62035;52.094;5.112;2023-05-07T01:50:23;17.13;;;10.50;;
62030;SDS011;62035;52.094;5.112;2023-05-07T01:52:52;15.35;;;10.48;;
62030;SDS011;62035;52.094;5.112;2023-05-07T01:55:20;14.20;;;10.52;;
62030;SDS011;62035;52.094;5.112;2023-05-07T01:57:48;12.93;;;10.18;;
62030;SDS011;62035;52.094;5.112;2023-05-07T02:00:16;16.70;;;10.52;;
62030;SDS011;62035;52.094;5.112;2023-05-07T02:02:44;13.88;;;10.18;;
62030;SDS011;62035;52.094;5.112;2023-05-07T02:05:12;13.48;;;10.13;;
62030;SDS011;62035;52.094;5.112;2023-05-07T02:07:40;16.20;;;11.07;;
62030;SDS011;62035;52.094;5.112;2023-05-07T02:10:08;14.25;;;10.00;;
62030;SDS011;62035;52.094;5.112;2023-05-07T02:12:38;12.07;;;9.80;;
62030;SDS011;62035;52.094;5.112;2023-05-07T02:15:05;15.32;;;9.52;;
62030;SDS011;62035;52.094;5.112;2023-05-07T02:17:34;13.70;;;9.23;;
62030;SDS011;62035;52.094;5.112;2023-05-07T02:20:03;11.27;;;8.75;;
62030;SDS011;62035;52.094;5.112;2023-05-07T02:22:32;16.85;;;8.63;;
62030;SDS011;62035;52.094;5.112;2023-05-07T02:25:00;12.40;;;8.70;;
62030;SDS011;62035;52.094;5.112;2023-05-07T02:27:28;13.07;;;8.85;;
62030;SDS011;62035;52.094;5.112;2023-05-07T02:29:56;12.25;;;8.30;;
62030;SDS011;62035;52.094;5.112;2023-05-07T02:32:24;13.45;;;7.72;;
62030;SDS011;62035;52.094;5.112;2023-05-07T02:34:52;13.07;;;8.55;;
62030;SDS011;62035;52.094;5.112;2023-05-07T02:37:19;10.20;;;8.02;;
62030;SDS011;62035;52.094;5.112;2023-05-07T02:39:47;12.60;;;8.18;;
62030;SDS011;62035;52.094;5.112;2023-05-07T02:42:14;10.68;;;7.95;;
62030;SDS011;62035;52.094;5.112;2023-05-07T02:44:42;14.90;;;8.13;;
62030;SDS011;62035;52.094;5.112;2023-05-07T02:47:11;13.95;;;8.40;;
62030;SDS011;62035;52.094;5.112;2023-05-07T02:49:38;12.35;;;8.10;;
62030;SDS011;62035;52.094;5.112;2023-05-07T02:52:06;11.45;;;7.82;;
62030;SDS011;62035;52.094;5.112;2023-05-07T02:54:34;13.60;;;8.88;;
62030;SDS011;62035;52.094;5.112;2023-05-07T02:57:01;12.80;;;8.82;;
62030;SDS011;62035;52.094;5.112;2023-05-07T02:59:29;12.57;;;8.55;;
62030;SDS011;62035;52.094;5.112;2023-05-07T03:01:56;14.75;;;8.52;;
62030;SDS011;62035;52.094;5.112;2023-05-07T03:04:25;11.95;;;8.02;;
62030;SDS011;62035;52.094;5.112;2023-05-07T03:06:53;13.80;;;8.23;;
62030;SDS011;62035;52.094;5.112;2023-05-07T03:09:20;16.63;;;8.15;;
62030;SDS011;62035;52.094;5.112;2023-05-07T03:11:48;13.10;;;8.52;;
62030;SDS011;62035;52.094;5.112;2023-05-07T03:14:16;10.95;;;7.80;;
62030;SDS011;62035;52.094;5.112;2023-05-07T03:16:43;11.05;;;8.00;;
62030;SDS011;62035;52.094;5.112;2023-05-07T03:19:11;11.70;;;8.27;;
62030;SDS011;62035;52.094;5.112;2023-05-07T03:21:40;14.07;;;8.68;;
62030;SDS011;62035;52.094;5.112;2023-05-07T03:24:07;12.63;;;8.63;;
62030;SDS011;62035;52.094;5.112;2023-05-07T03:26:35;12.07;;;8.68;;
62030;SDS011;62035;52.094;5.112;2023-05-07T03:29:02;10.75;;;8.48;;
62030;SDS011;62035;52.094;5.112;2023-05-07T03:31:31;15.95;;;9.48;;
62030;SDS011;62035;52.094;5.112;2023-05-07T03:33:58;12.23;;;9.35;;
62030;SDS011;62035;52.094;5.112;2023-05-07T03:36:26;13.32;;;10.00;;
62030;SDS011;62035;52.094;5.112;2023-05-07T03:38:55;12.73;;;10.20;;
62030;SDS011;62035;52.094;5.112;2023-05-07T03:41:22;17.58;;;10.50;;
62030;SDS011;62035;52.094;5.112;2023-05-07T03:43:51;16.98;;;10.52;;
62030;SDS011;62035;52.094;5.112;2023-05-07T03:46:18;12.70;;;9.65;;
62030;SDS011;62035;52.094;5.112;2023-05-07T03:48:46;20.85;;;10.45;;
62030;SDS011;62035;52.094;5.112;2023-05-07T03:51:14;15.07;;;10.18;;
62030;SDS011;62035;52.094;5.112;2023-05-07T03:53:42;17.85;;;10.23;;
62030;SDS011;62035;52.094;5.112;2023-05-07T03:56:11;14.38;;;9.63;;
62030;SDS011;62035;52.094;5.112;2023-05-07T03:58:38;13.57;;;9.75;;
62030;SDS011;62035;52.094;5.112;2023-05-07T04:01:06;15.63;;;9.50;;
62030;SDS011;62035;52.094;5.112;2023-05-07T04:03:34;10.77;;;9.30;;
62030;SDS011;62035;52.094;5.112;2023-05-07T04:06:02;13.63;;;9.43;;
62030;SDS011;62035;52.094;5.112;2023-05-07T04:08:30;16.63;;;9.73;;
62030;SDS011;62035;52.094;5.112;2023-05-07T04:10:57;14.20;;;9.98;;
62030;SDS011;62035;52.094;5.112;2023-05-07T04:13:27;13.48;;;9.00;;
62030;SDS011;62035;52.094;5.112;2023-05-07T04:15:56;14.70;;;9.32;;
62030;SDS011;62035;52.094;5.112;2023-05-07T04:18:23;12.55;;;9.43;;
62030;SDS011;62035;52.094;5.112;2023-05-07T04:20:51;13.80;;;10.07;;
62030;SDS011;62035;52.094;5.112;2023-05-07T04:23:18;15.57;;;10.23;;
62030;SDS011;62035;52.094;5.112;2023-05-07T04:25:46;17.58;;;10.98;;
62030;SDS011;62035;52.094;5.112;2023-05-07T04:28:14;16.05;;;10.77;;
62030;SDS011;62035;52.094;5.112;2023-05-07T04:30:42;18.15;;;11.95;;
62030;SDS011;62035;52.094;5.112;2023-05-07T04:33:10;17.27;;;12.07;;
62030;SDS011;62035;52.094;5.112;2023-05-07T04:35:38;21.05;;;12.20;;
62030;SDS011;62035;52.094;5.112;2023-05-07T04:38:06;17.33;;;11.80;;
62030;SDS011;62035;52.094;5.112;2023-05-07T04:40:35;17.10;;;12.02;;
62030;SDS011;62035;52.094;5.112;2023-05-07T04:43:03;18.58;;;12.02;;
62030;SDS011;62035;52.094;5.112;2023-05-07T04:45:31;17.55;;;11.35;;
62030;SDS011;62035;52.094;5.112;2023-05-07T04:48:00;16.88;;;10.95;;
62030;SDS011;62035;52.094;5.112;2023-05-07T04:50:27;15.52;;;11.07;;
62030;SDS011;62035;52.094;5.112;2023-05-07T04:52:56;18.77;;;11.90;;
62030;SDS011;62035;52.094;5.112;2023-05-07T04:55:23;16.30;;;11.80;;
62030;SDS011;62035;52.094;5.112;2023-05-07T04:57:51;16.05;;;11.05;;
62030;SDS011;62035;52.094;5.112;2023-05-07T05:00:20;17.23;;;11.95;;
62030;SDS011;62035;52.094;5.112;2023-05-07T05:02:48;14.88;;;11.13;;
62030;SDS011;62035;52.094;5.112;2023-05-07T05:05:17;16.73;;;11.73;;
62030;SDS011;62035;52.094;5.112;2023-05-07T05:07:45;16.90;;;11.18;;
62030;SDS011;62035;52.094;5.112;2023-05-07T05:10:13;15.70;;;11.18;;
62030;SDS011;62035;52.094;5.112;2023-05-07T05:12:41;14.70;;;11.40;;
62030;SDS011;62035;52.094;5.112;2023-05-07T05:15:10;16.92;;;11.43;;
62030;SDS011;62035;52.094;5.112;2023-05-07T05:17:38;17.13;;;12.27;;
62030;SDS011;62035;52.094;5.112;2023-05-07T05:20:06;15.40;;;11.10;;
62030;SDS011;62035;52.094;5.112;2023-05-07T05:22:37;14.82;;;10.65;;
62030;SDS011;62035;52.094;5.112;2023-05-07T05:25:05;15.82;;;11.23;;
62030;SDS011;62035;52.094;5.112;2023-05-07T05:27:34;13.90;;;11.13;;
62030;SDS011;62035;52.094;5.112;2023-05-07T05:30:01;14.20;;;10.90;;
62030;SDS011;62035;52.094;5.112;2023-05-07T05:32:31;16.63;;;11.48;;
62030;SDS011;62035;52.094;5.112;2023-05-07T05:34:58;13.52;;;10.88;;
62030;SDS011;62035;52.094;5.112;2023-05-07T05:37:26;17.05;;;11.52;;
62030;SDS011;62035;52.094;5.112;2023-05-07T05:39:57;17.45;;;11.93;;
62030;SDS011;62035;52.094;5.112;2023-05-07T05:42:24;16.52;;;12.77;;
62030;SDS011;62035;52.094;5.112;2023-05-07T05:44:52;17.42;;;12.90;;
62030;SDS011;62035;52.094;5.112;2023-05-07T05:47:19;18.50;;;13.15;;
62030;SDS011;62035;52.094;5.112;2023-05-07T05:49:47;17.33;;;12.30;;
62030;SDS011;62035;52.094;5.112;2023-05-07T05:52:15;15.02;;;12.02;;
62030;SDS011;62035;52.094;5.112;2023-05-07T05:54:43;17.33;;;12.70;;
62030;SDS011;62035;52.094;5.112;2023-05-07T05:57:12;15.35;;;11.60;;
62030;SDS011;62035;52.094;5.112;2023-05-07T05:59:39;19.13;;;12.25;;
62030;SDS011;62035;52.094;5.112;2023-05-07T06:02:07;20.42;;;11.73;;
62030;SDS011;62035;52.094;5.112;2023-05-07T06:04:35;17.15;;;12.05;;
62030;SDS011;62035;52.094;5.112;2023-05-07T06:07:02;16.45;;;12.45;;
62030;SDS011;62035;52.094;5.112;2023-05-07T06:09:30;18.67;;;13.00;;
62030;SDS011;62035;52.094;5.112;2023-05-07T06:11:57;18.65;;;13.00;;
62030;SDS011;62035;52.094;5.112;2023-05-07T06:14:26;17.48;;;12.57;;
62030;SDS011;62035;52.094;5.112;2023-05-07T06:16:54;18.42;;;12.52;;
62030;SDS011;62035;52.094;5.112;2023-05-07T06:19:21;18.88;;;12.85;;
62030;SDS011;62035;52.094;5.112;2023-05-07T06:21:49;19.48;;;12.05;;
62030;SDS011;62035;52.094;5.112;2023-05-07T06:24:17;16.83;;;12.05;;
62030;SDS011;62035;52.094;5.112;2023-05-07T06:26:44;19.13;;;12.43;;
62030;SDS011;62035;52.094;5.112;2023-05-07T06:29:12;17.55;;;12.45;;
62030;SDS011;62035;52.094;5.112;2023-05-07T06:31:41;17.33;;;11.73;;
62030;SDS011;62035;52.094;5.112;2023-05-07T06:34:08;20.08;;;13.25;;
62030;SDS011;62035;52.094;5.112;2023-05-07T06:36:39;19.85;;;12.23;;
62030;SDS011;62035;52.094;5.112;2023-05-07T06:39:07;15.70;;;11.80;;
62030;SDS011;62035;52.094;5.112;2023-05-07T06:41:35;15.05;;;10.88;;
62030;SDS011;62035;52.094;5.112;2023-05-07T06:44:03;16.08;;;12.32;;
62030;SDS011;62035;52.094;5.112;2023-05-07T06:46:31;14.90;;;11.23;;
62030;SDS011;62035;52.094;5.112;2023-05-07T06:49:00;15.70;;;11.90;;
62030;SDS011;62035;52.094;5.112;2023-05-07T06:51:28;14.93;;;11.57;;
62030;SDS011;62035;52.094;5.112;2023-05-07T06:53:56;15.98;;;11.55;;
62030;SDS011;62035;52.094;5.112;2023-05-07T06:56:23;15.40;;;11.45;;
62030;SDS011;62035;52.094;5.112;2023-05-07T06:58:51;15.90;;;10.40;;
62030;SDS011;62035;52.094;5.112;2023-05-07T07:01:19;17.52;;;11.95;;
62030;SDS011;62035;52.094;5.112;2023-05-07T07:03:46;13.80;;;10.77;;
62030;SDS011;62035;52.094;5.112;2023-05-07T07:06:15;15.50;;;11.50;;
62030;SDS011;62035;52.094;5.112;2023-05-07T07:08:43;14.05;;;10.98;;
62030;SDS011;62035;52.094;5.112;2023-05-07T07:11:11;19.40;;;11.13;;
62030;SDS011;62035;52.094;5.112;2023-05-07T07:13:38;14.77;;;10.73;;
62030;SDS011;62035;52.094;5.112;2023-05-07T07:16:06;17.35;;;11.38;;
62030;SDS011;62035;52.094;5.112;2023-05-07T07:18:34;17.48;;;11.13;;
62030;SDS011;62035;52.094;5.112;2023-05-07T07:21:01;16.70;;;10.65;;
62030;SDS011;62035;52.094;5.112;2023-05-07T07:23:31;17.77;;;10.75;;
62030;SDS011;62035;52.094;5.112;2023-05-07T07:25:58;19.98;;;11.70;;
62030;SDS011;62035;52.094;5.112;2023-05-07T07:28:26;21.40;;;11.32;;
62030;SDS011;62035;52.094;5.112;2023-05-07T07:30:53;15.10;;;10.65;;
62030;SDS011;62035;52.094;5.112;2023-05-07T07:33:21;18.45;;;11.25;;
62030;SDS011;62035;52.094;5.112;2023-05-07T07:35:48;15.07;;;11.18;;
62030;SDS011;62035;52.094;5.112;2023-05-07T07:38:16;14.25;;;10.65;;
62030;SDS011;62035;52.094;5.112;2023-05-07T07:40:47;14.07;;;11.18;;
62030;SDS011;62035;52.094;5.112;2023-05-07T07:43:14;15.17;;;12.57;;
62030;SDS011;62035;52.094;5.112;2023-05-07T07:45:42;15.20;;;11.05;;
62030;SDS011;62035;52.094;5.112;2023-05-07T07:48:09;15.15;;;10.82;;
62030;SDS011;62035;52.094;5.112;2023-05-07T07:50:37;13.85;;;10.57;;
62030;SDS011;62035;52.094;5.112;2023-05-07T07:53:05;13.63;;;10.73;;
62030;SDS011;62035;52.094;5.112;2023-05-07T07:55:34;15.40;;;10.35;;
62030;SDS011;62035;52.094;5.112;2023-05-07T07:58:07;14.20;;;10.98;;
62030;SDS011;62035;52.094;5.112;2023-05-07T08:00:35;16.25;;;10.80;;
62030;SDS011;62035;52.094;5.112;2023-05-07T08:03:03;15.35;;;11.52;;
62030;SDS011;62035;52.094;5.112;2023-05-07T08:05:32;15.85;;;11.57;;
62030;SDS011;62035;52.094;5.112;2023-05-07T08:07:59;14.75;;;11.23;;
62030;SDS011;62035;52.094;5.112;2023-05-07T08:10:27;16.50;;;11.20;;
62030;SDS011;62035;52.094;5.112;2023-05-07T08:12:55;16.95;;;11.88;;
62030;SDS011;62035;52.094;5.112;2023-05-07T08:15:24;17.98;;;11.02;;
62030;SDS011;62035;52.094;5.112;2023-05-07T08:17:51;16.05;;;11.02;;
62030;SDS011;62035;52.094;5.112;2023-05-07T08:20:19;15.40;;;11.02;;
62030;SDS011;62035;52.094;5.112;2023-05-07T08:22:47;16.13;;;11.00;;
62030;SDS011;62035;52.094;5.112;2023-05-07T08:25:14;18.02;;;11.45;;
62030;SDS011;62035;52.094;5.112;2023-05-07T08:27:42;16.60;;;11.02;;
62030;SDS011;62035;52.094;5.112;2023-05-07T08:30:11;13.88;;;10.38;;
62030;SDS011;62035;52.094;5.112;2023-05-07T08:32:41;16.70;;;10.07;;
62030;SDS011;62035;52.094;5.112;2023-05-07T08:35:09;12.82;;;9.35;;
62030;SDS011;62035;52.094;5.112;2023-05-07T08:37:36;16.20;;;9.00;;
62030;SDS011;62035;52.094;5.112;2023-05-07T08:40:04;13.98;;;9.32;;
62030;SDS011;62035;52.094;5.112;2023-05-07T08:42:35;10.02;;;7.97;;
62030;SDS011;62035;52.094;5.112;2023-05-07T08:45:04;12.13;;;8.93;;
62030;SDS011;62035;52.094;5.112;2023-05-07T08:47:40;12.13;;;8.75;;
62030;SDS011;62035;52.094;5.112;2023-05-07T08:50:11;12.30;;;8.70;;
62030;SDS011;62035;52.094;5.112;2023-05-07T08:52:40;14.52;;;9.20;;
62030;SDS011;62035;52.094;5.112;2023-05-07T08:55:08;15.70;;;8.50;;
62030;SDS011;62035;52.094;5.112;2023-05-07T08:57:37;12.45;;;8.73;;
62030;SDS011;62035;52.094;5.112;2023-05-07T09:00:05;13.50;;;8.90;;
62030;SDS011;62035;52.094;5.112;2023-05-07T09:02:34;11.43;;;8.38;;
62030;SDS011;62035;52.094;5.112;2023-05-07T09:05:04;12.10;;;9.07;;
62030;SDS011;62035;52.094;5.112;2023-05-07T09:07:33;14.40;;;8.50;;
62030;SDS011;62035;52.094;5.112;2023-05-07T09:10:01;12.88;;;7.90;;
62030;SDS011;62035;52.094;5.112;2023-05-07T09:12:30;11.65;;;8.40;;
62030;SDS011;62035;52.094;5.112;2023-05-07T09:14:58;11.48;;;8.27;;
62030;SDS011;62035;52.094;5.112;2023-05-07T09:17:26;12.10;;;8.32;;
62030;SDS011;62035;52.094;5.112;2023-05-07T09:19:55;12.65;;;8.40;;
62030;SDS011;62035;52.094;5.112;2023-05-07T09:22:24;10.50;;;7.85;;
62030;SDS011;62035;52.094;5.112;2023-05-07T09:24:51;9.55;;;7.78;;
62030;SDS011;62035;52.094;5.112;2023-05-07T09:27:19;11.55;;;7.25;;
62030;SDS011;62035;52.094;5.112;2023-05-07T09:29:47;10.57;;;7.93;;
62030;SDS011;62035;52.094;5.112;2023-05-07T09:32:15;14.40;;;8.77;;
62030;SDS011;62035;52.094;5.112;2023-05-07T09:34:43;12.18;;;7.28;;
62030;SDS011;62035;52.094;5.112;2023-05-07T09:37:10;10.88;;;7.85;;
62030;SDS011;62035;52.094;5.112;2023-05-07T09:39:42;11.02;;;7.75;;
62030;SDS011;62035;52.094;5.112;2023-05-07T09:42:11;15.75;;;7.82;;
62030;SDS011;62035;52.094;5.112;2023-05-07T09:44:41;11.02;;;7.90;;
62030;SDS011;62035;52.094;5.112;2023-05-07T09:47:10;12.98;;;7.90;;
62030;SDS011;62035;52.094;5.112;2023-05-07T09:49:47;9.57;;;7.60;;
62030;SDS011;62035;52.094;5.112;2023-05-07T09:52:16;11.77;;;8.48;;
62030;SDS011;62035;52.094;5.112;2023-05-07T09:54:46;10.77;;;7.25;;
62030;SDS011;62035;52.094;5.112;2023-05-07T09:57:15;13.07;;;7.40;;
62030;SDS011;62035;52.094;5.112;2023-05-07T09:59:47;9.70;;;7.05;;
62030;SDS011;62035;52.094;5.112;2023-05-07T10:02:19;10.10;;;6.80;;
62030;SDS011;62035;52.094;5.112;2023-05-07T10:04:48;9.50;;;6.07;;
62030;SDS011;62035;52.094;5.112;2023-05-07T10:07:17;12.55;;;6.85;;
62030;SDS011;62035;52.094;5.112;2023-05-07T10:09:46;10.93;;;6.40;;
62030;SDS011;62035;52.094;5.112;2023-05-07T10:12:15;12.13;;;5.40;;
62030;SDS011;62035;52.094;5.112;2023-05-07T10:14:45;8.25;;;4.38;;
62030;SDS011;62035;52.094;5.112;2023-05-07T10:17:14;9.55;;;4.88;;
62030;SDS011;62035;52.094;5.112;2023-05-07T10:19:44;10.07;;;5.20;;
62030;SDS011;62035;52.094;5.112;2023-05-07T10:22:12;10.10;;;5.35;;
62030;SDS011;62035;52.094;5.112;2023-05-07T10:24:43;10.43;;;5.10;;
62030;SDS011;62035;52.094;5.112;2023-05-07T10:27:17;8.20;;;5.10;;
62030;SDS011;62035;52.094;5.112;2023-05-07T10:29:51;7.18;;;4.35;;
62030;SDS011;62035;52.094;5.112;2023-05-07T10:32:39;8.32;;;3.85;;
62030;SDS011;62035;52.094;5.112;2023-05-07T10:35:13;11.27;;;4.13;;
62030;SDS011;62035;52.094;5.112;2023-05-07T10:37:46;7.15;;;3.25;;
62030;SDS011;62035;52.094;5.112;2023-05-07T10:40:16;5.85;;;3.90;;
62030;SDS011;62035;52.094;5.112;2023-05-07T10:42:55;10.57;;;4.47;;
62030;SDS011;62035;52.094;5.112;2023-05-07T10:45:25;8.02;;;3.30;;
62030;SDS011;62035;52.094;5.112;2023-05-07T10:48:06;10.48;;;4.28;;
62030;SDS011;62035;52.094;5.112;2023-05-07T10:50:36;6.43;;;3.58;;
62030;SDS011;62035;52.094;5.112;2023-05-07T10:53:20;6.50;;;3.83;;
62030;SDS011;62035;52.094;5.112;2023-05-07T10:58:54;7.82;;;3.28;;
62030;SDS011;62035;52.094;5.112;2023-05-07T11:04:18;9.85;;;3.40;;
62030;SDS011;62035;52.094;5.112;2023-05-07T11:15:42;7.18;;;3.85;;
62030;SDS011;62035;52.094;5.112;2023-05-07T11:18:12;7.95;;;3.65;;
62030;SDS011;62035;52.094;5.112;2023-05-07T11:20:45;6.78;;;3.80;;
62030;SDS011;62035;52.094;5.112;2023-05-07T11:26:27;5.90;;;3.80;;
62030;SDS011;62035;52.094;5.112;2023-05-07T11:28:58;8.02;;;3.70;;
62030;SDS011;62035;52.094;5.112;2023-05-07T11:31:27;6.93;;;3.80;;
62030;SDS011;62035;52.094;5.112;2023-05-07T11:33:55;7.63;;;4.70;;
62030;SDS011;62035;52.094;5.112;2023-05-07T11:36:24;12.70;;;4.75;;
62030;SDS011;62035;52.094;5.112;2023-05-07T11:38:53;7.20;;;3.60;;
62030;SDS011;62035;52.094;5.112;2023-05-07T11:41:21;6.28;;;4.05;;
62030;SDS011;62035;52.094;5.112;2023-05-07T11:43:55;6.53;;;3.85;;
62030;SDS011;62035;52.094;5.112;2023-05-07T11:46:27;7.05;;;4.35;;
62030;SDS011;62035;52.094;5.112;2023-05-07T11:48:55;8.52;;;4.25;;
62030;SDS011;62035;52.094;5.112;2023-05-07T11:51:24;8.63;;;3.60;;
62030;SDS011;62035;52.094;5.112;2023-05-07T11:53:55;8.52;;;3.78;;
62030;SDS011;62035;52.094;5.112;2023-05-07T11:56:23;6.03;;;3.13;;
62030;SDS011;62035;52.094;5.112;2023-05-07T11:58:50;7.32;;;3.67;;
62030;SDS011;62035;52.094;5.112;2023-05-07T12:01:19;8.65;;;3.75;;
62030;SDS011;62035;52.094;5.112;2023-05-07T12:03:47;7.55;;;4.10;;
62030;SDS011;62035;52.094;5.112;2023-05-07T12:06:15;8.30;;;3.53;;
62030;SDS011;62035;52.094;5.112;2023-05-07T12:08:44;7.32;;;3.55;;
62030;SDS011;62035;52.094;5.112;2023-05-07T12:11:14;8.80;;;3.30;;
62030;SDS011;62035;52.094;5.112;2023-05-07T12:13:48;6.28;;;3.88;;
62030;SDS011;62035;52.094;5.112;2023-05-07T12:16:16;9.38;;;4.40;;
62030;SDS011;62035;52.094;5.112;2023-05-07T12:18:46;9.20;;;3.80;;
62030;SDS011;62035;52.094;5.112;2023-05-07T12:21:14;8.02;;;3.80;;
62030;SDS011;62035;52.094;5.112;2023-05-07T12:23:43;6.65;;;4.13;;
62030;SDS011;62035;52.094;5.112;2023-05-07T12:26:11;7.68;;;4.00;;
62030;SDS011;62035;52.094;5.112;2023-05-07T12:28:38;9.43;;;5.60;;
62030;SDS011;62035;52.094;5.112;2023-05-07T12:31:06;11.98;;;5.13;;
62030;SDS011;62035;52.094;5.112;2023-05-07T12:33:34;9.27;;;4.57;;
62030;SDS011;62035;52.094;5.112;2023-05-07T12:36:05;6.25;;;4.00;;
62030;SDS011;62035;52.094;5.112;2023-05-07T12:38:35;8.27;;;4.32;;
62030;SDS011;62035;52.094;5.112;2023-05-07T12:41:06;8.00;;;4.68;;
62030;SDS011;62035;52.094;5.112;2023-05-07T12:43:35;7.88;;;4.50;;
62030;SDS011;62035;52.094;5.112;2023-05-07T12:46:04;6.32;;;2.72;;
62030;SDS011;62035;52.094;5.112;2023-05-07T12:48:35;7.05;;;2.40;;
62030;SDS011;62035;52.094;5.112;2023-05-07T12:51:05;7.78;;;2.30;;
62030;SDS011;62035;52.094;5.112;2023-05-07T12:53:39;7.47;;;2.67;;
62030;SDS011;62035;52.094;5.112;2023-05-07T12:56:08;6.88;;;2.15;;
62030;SDS011;62035;52.094;5.112;2023-05-07T12:58:36;3.70;;;1.90;;
62030;SDS011;62035;52.094;5.112;2023-05-07T13:01:04;7.43;;;2.70;;
62030;SDS011;62035;52.094;5.112;2023-05-07T13:03:35;6.97;;;3.90;;
62030;SDS011;62035;52.094;5.112;2023-05-07T13:06:07;9.38;;;3.90;;
62030;SDS011;62035;52.094;5.112;2023-05-07T13:08:39;8.40;;;4.18;;
62030;SDS011;62035;52.094;5.112;2023-05-07T13:13:38;7.22;;;4.00;;
62030;SDS011;62035;52.094;5.112;2023-05-07T13:16:08;10.82;;;5.05;;
62030;SDS011;62035;52.094;5.112;2023-05-07T13:18:38;14.03;;;4.90;;
62030;SDS011;62035;52.094;5.112;2023-05-07T13:21:10;11.55;;;5.65;;
62030;SDS011;62035;52.094;5.112;2023-05-07T13:23:39;10.43;;;4.95;;
62030;SDS011;62035;52.094;5.112;2023-05-07T13:26:07;9.25;;;4.90;;
62030;SDS011;62035;52.094;5.112;2023-05-07T13:28:34;8.88;;;5.00;;
62030;SDS011;62035;52.094;5.112;2023-05-07T13:31:02;10.05;;;4.75;;
62030;SDS011;62035;52.094;5.112;2023-05-07T13:33:30;11.50;;;5.00;;
62030;SDS011;62035;52.094;5.112;2023-05-07T13:35:58;9.30;;;4.55;;
62030;SDS011;62035;52.094;5.112;2023-05-07T13:38:27;7.30;;;4.43;;
62030;SDS011;62035;52.094;5.112;2023-05-07T13:40:55;10.15;;;4.55;;
62030;SDS011;62035;52.094;5.112;2023-05-07T13:43:22;9.32;;;3.88;;
62030;SDS011;62035;52.094;5.112;2023-05-07T13:45:50;6.43;;;3.40;;
62030;SDS011;62035;52.094;5.112;2023-05-07T13:48:18;8.73;;;2.58;;
62030;SDS011;62035;52.094;5.112;2023-05-07T13:50:45;7.32;;;3.10;;
62030;SDS011;62035;52.094;5.112;2023-05-07T13:53:13;13.00;;;3.28;;
62030;SDS011;62035;52.094;5.112;2023-05-07T13:55:44;7.90;;;3.78;;
62030;SDS011;62035;52.094;5.112;2023-05-07T13:58:12;8.82;;;3.72;;
62030;SDS011;62035;52.094;5.112;2023-05-07T14:00:39;7.55;;;3.45;;
62030;SDS011;62035;52.094;5.112;2023-05-07T14:03:07;9.38;;;3.83;;
62030;SDS011;62035;52.094;5.112;2023-05-07T14:05:34;6.03;;;3.65;;
62030;SDS011;62035;52.094;5.112;2023-05-07T14:08:02;7.90;;;3.40;;
62030;SDS011;62035;52.094;5.112;2023-05-07T14:10:30;8.30;;;3.83;;
62030;SDS011;62035;52.094;5.112;2023-05-07T14:13:01;6.72;;;2.53;;
62030;SDS011;62035;52.094;5.112;2023-05-07T14:15:29;6.20;;;2.80;;
62030;SDS011;62035;52.094;5.112;2023-05-07T14:17:58;6.72;;;3.30;;
62030;SDS011;62035;52.094;5.112;2023-05-07T14:20:28;9.20;;;3.80;;
62030;SDS011;62035;52.094;5.112;2023-05-07T14:22:56;5.28;;;2.40;;
62030;SDS011;62035;52.094;5.112;2023-05-07T14:25:24;6.05;;;3.10;;
62030;SDS011;62035;52.094;5.112;2023-05-07T14:27:51;8.45;;;3.10;;
62030;SDS011;62035;52.094;5.112;2023-05-07T14:30:20;8.45;;;2.80;;
62030;SDS011;62035;52.094;5.112;2023-05-07T14:32:50;6.95;;;2.95;;
62030;SDS011;62035;52.094;5.112;2023-05-07T14:35:17;9.75;;;4.13;;
62030;SDS011;62035;52.094;5.112;2023-05-07T14:37:45;12.27;;;5.70;;
62030;SDS011;62035;52.094;5.112;2023-05-07T14:40:13;10.20;;;5.38;;
62030;SDS011;62035;52.094;5.112;2023-05-07T14:42:41;8.57;;;6.15;;
62030;SDS011;62035;52.094;5.112;2023-05-07T14:45:09;11.55;;;6.80;;
62030;SDS011;62035;52.094;5.112;2023-05-07T14:47:38;10.75;;;7.03;;
62030;SDS011;62035;52.094;5.112;2023-05-07T14:50:06;16.98;;;8.57;;
62030;SDS011;62035;52.094;5.112;2023-05-07T14:52:34;13.27;;;7.70;;
62030;SDS011;62035;52.094;5.112;2023-05-07T14:55:02;15.52;;;6.90;;
62030;SDS011;62035;52.094;5.112;2023-05-07T14:57:30;13.55;;;6.90;;
62030;SDS011;62035;52.094;5.112;2023-05-07T15:00:00;16.02;;;7.20;;
62030;SDS011;62035;52.094;5.112;2023-05-07T15:02:30;11.60;;;6.80;;